sensor_id;sensor_type;location;lat;lon;timestamp;P1;durP1;ratioP1;P2;durP2;ratioP2
10811;SDS011;5458;51.496;7.334;2022-11-13T00:01:27;19.75;;;16.13;;
10811;SDS011;5458;51.496;7.334;2022-11-13T00:03:52;20.83;;;14.63;;
10811;SDS011;5458;51.496;7.334;2022-11-13T00:06:18;17.17;;;14.90;;
10811;SDS011;5458;51.496;7.334;2022-11-13T00:08:44;22.60;;;16.08;;
10811;SDS011;5458;51.496;7.334;2022-11-13T00:11:12;18.77;;;14.25;;
10811;SDS011;5458;51.496;7.334;2022-11-13T00:13:42;21.02;;;15.25;;
10811;SDS011;5458;51.496;7.334;2022-11-13T00:16:10;16.35;;;14.23;;
10811;SDS011;5458;51.496;7.334;2022-11-13T00:18:38;18.60;;;14.98;;
10811;SDS011;5458;51.496;7.334;2022-11-13T00:21:07;17.60;;;14.88;;
10811;SDS011;5458;51.496;7.334;2022-11-13T00:23:36;15.52;;;13.38;;
10811;SDS011;5458;51.496;7.334;2022-11-13T00:26:09;18.13;;;14.68;;
10811;SDS011;5458;51.496;7.334;2022-11-13T00:28:40;19.27;;;14.52;;
10811;SDS011;5458;51.496;7.334;2022-11-13T00:31:06;20.50;;;14.95;;
10811;SDS011;5458;51.496;7.334;2022-11-13T00:33:33;17.35;;;14.05;;
10811;SDS011;5458;51.496;7.334;2022-11-13T00:36:06;18.65;;;14.60;;
10811;SDS011;5458;51.496;7.334;2022-11-13T00:38:35;17.02;;;13.85;;
10811;SDS011;5458;51.496;7.334;2022-11-13T00:41:00;17.52;;;14.60;;
10811;SDS011;5458;51.496;7.334;2022-11-13T00:43:26;16.35;;;13.68;;
10811;SDS011;5458;51.496;7.334;2022-11-13T00:45:52;14.90;;;13.30;;
10811;SDS011;5458;51.496;7.334;2022-11-13T00:48:18;18.00;;;13.40;;
10811;SDS011;5458;51.496;7.334;2022-11-13T00:50:44;14.50;;;12.57;;
10811;SDS011;5458;51.496;7.334;2022-11-13T00:53:10;14.80;;;12.10;;
10811;SDS011;5458;51.496;7.334;2022-11-13T00:55:36;14.15;;;12.70;;
10811;SDS011;5458;51.496;7.334;2022-11-13T00:58:02;14.88;;;12.55;;
10811;SDS011;5458;51.496;7.334;2022-11-13T01:00:29;15.90;;;13.05;;
10811;SDS011;5458;51.496;7.334;2022-11-13T01:02:57;14.52;;;12.18;;
10811;SDS011;5458;51.496;7.334;2022-11-13T01:05:23;14.75;;;12.13;;
10811;SDS011;5458;51.496;7.334;2022-11-13T01:07:49;15.80;;;12.57;;
10811;SDS011;5458;51.496;7.334;2022-11-13T01:10:15;14.20;;;11.75;;
10811;SDS011;5458;51.496;7.334;2022-11-13T01:12:41;14.70;;;12.20;;
10811;SDS011;5458;51.496;7.334;2022-11-13T01:15:06;13.95;;;11.85;;
10811;SDS011;5458;51.496;7.334;2022-11-13T01:17:32;13.05;;;11.27;;
10811;SDS011;5458;51.496;7.334;2022-11-13T01:19:58;13.35;;;11.15;;
10811;SDS011;5458;51.496;7.334;2022-11-13T01:22:23;14.40;;;11.98;;
10811;SDS011;5458;51.496;7.334;2022-11-13T01:24:49;14.00;;;10.93;;
10811;SDS011;5458;51.496;7.334;2022-11-13T01:27:14;14.43;;;10.75;;
10811;SDS011;5458;51.496;7.334;2022-11-13T01:29:40;12.77;;;11.13;;
10811;SDS011;5458;51.496;7.334;2022-11-13T01:32:06;16.38;;;12.20;;
10811;SDS011;5458;51.496;7.334;2022-11-13T01:34:32;13.88;;;11.80;;
10811;SDS011;5458;51.496;7.334;2022-11-13T01:36:57;12.40;;;11.10;;
10811;SDS011;5458;51.496;7.334;2022-11-13T01:39:23;12.90;;;10.80;;
10811;SDS011;5458;51.496;7.334;2022-11-13T01:41:48;12.45;;;11.18;;
10811;SDS011;5458;51.496;7.334;2022-11-13T01:44:15;12.38;;;9.68;;
10811;SDS011;5458;51.496;7.334;2022-11-13T01:46:52;10.95;;;9.68;;
10811;SDS011;5458;51.496;7.334;2022-11-13T01:49:27;13.13;;;10.38;;
10811;SDS011;5458;51.496;7.334;2022-11-13T01:52:02;12.23;;;10.57;;
10811;SDS011;5458;51.496;7.334;2022-11-13T01:54:33;14.32;;;10.13;;
10811;SDS011;5458;51.496;7.334;2022-11-13T01:57:02;11.75;;;10.02;;
10811;SDS011;5458;51.496;7.334;2022-11-13T01:59:29;14.02;;;10.02;;
10811;SDS011;5458;51.496;7.334;2022-11-13T02:02:02;13.63;;;10.77;;
10811;SDS011;5458;51.496;7.334;2022-11-13T02:04:28;13.23;;;10.40;;
10811;SDS011;5458;51.496;7.334;2022-11-13T02:06:55;12.13;;;10.68;;
10811;SDS011;5458;51.496;7.334;2022-11-13T02:09:25;13.38;;;11.00;;
10811;SDS011;5458;51.496;7.334;2022-11-13T02:11:53;13.73;;;10.02;;
10811;SDS011;5458;51.496;7.334;2022-11-13T02:14:20;10.80;;;9.57;;
10811;SDS011;5458;51.496;7.334;2022-11-13T02:16:49;10.35;;;9.25;;
10811;SDS011;5458;51.496;7.334;2022-11-13T02:19:28;10.57;;;9.40;;
10811;SDS011;5458;51.496;7.334;2022-11-13T02:22:03;10.55;;;9.55;;
10811;SDS011;5458;51.496;7.334;2022-11-13T02:24:39;11.05;;;9.95;;
10811;SDS011;5458;51.496;7.334;2022-11-13T02:27:51;10.88;;;9.73;;
10811;SDS011;5458;51.496;7.334;2022-11-13T02:29:58;12.30;;;10.02;;
10811;SDS011;5458;51.496;7.334;2022-11-13T02:32:23;11.88;;;9.98;;
10811;SDS011;5458;51.496;7.334;2022-11-13T02:34:49;10.65;;;9.52;;
10811;SDS011;5458;51.496;7.334;2022-11-13T02:37:14;10.77;;;9.65;;
10811;SDS011;5458;51.496;7.334;2022-11-13T02:39:40;10.82;;;9.73;;
10811;SDS011;5458;51.496;7.334;2022-11-13T02:42:05;10.68;;;9.57;;
10811;SDS011;5458;51.496;7.334;2022-11-13T02:44:31;11.63;;;10.30;;
10811;SDS011;5458;51.496;7.334;2022-11-13T02:46:56;13.07;;;10.25;;
10811;SDS011;5458;51.496;7.334;2022-11-13T02:49:22;13.90;;;10.43;;
10811;SDS011;5458;51.496;7.334;2022-11-13T02:51:48;12.57;;;10.27;;
10811;SDS011;5458;51.496;7.334;2022-11-13T02:54:13;13.52;;;9.52;;
10811;SDS011;5458;51.496;7.334;2022-11-13T02:56:39;11.20;;;10.05;;
10811;SDS011;5458;51.496;7.334;2022-11-13T02:59:04;11.05;;;9.90;;
10811;SDS011;5458;51.496;7.334;2022-11-13T03:01:30;10.70;;;9.65;;
10811;SDS011;5458;51.496;7.334;2022-11-13T03:03:55;10.40;;;9.30;;
10811;SDS011;5458;51.496;7.334;2022-11-13T03:06:21;11.93;;;10.18;;
10811;SDS011;5458;51.496;7.334;2022-11-13T03:08:46;10.80;;;9.73;;
10811;SDS011;5458;51.496;7.334;2022-11-13T03:11:12;11.48;;;10.32;;
10811;SDS011;5458;51.496;7.334;2022-11-13T03:13:37;11.93;;;10.25;;
10811;SDS011;5458;51.496;7.334;2022-11-13T03:16:05;12.35;;;10.88;;
10811;SDS011;5458;51.496;7.334;2022-11-13T03:18:35;11.30;;;10.13;;
10811;SDS011;5458;51.496;7.334;2022-11-13T03:21:04;12.98;;;10.93;;
10811;SDS011;5458;51.496;7.334;2022-11-13T03:23:31;12.52;;;11.15;;
10811;SDS011;5458;51.496;7.334;2022-11-13T03:26:01;11.40;;;10.23;;
10811;SDS011;5458;51.496;7.334;2022-11-13T03:28:27;11.68;;;10.32;;
10811;SDS011;5458;51.496;7.334;2022-11-13T03:30:53;11.13;;;10.02;;
10811;SDS011;5458;51.496;7.334;2022-11-13T03:36:41;11.88;;;9.95;;
10811;SDS011;5458;51.496;7.334;2022-11-13T03:39:06;12.25;;;9.68;;
10811;SDS011;5458;51.496;7.334;2022-11-13T03:41:32;10.73;;;9.45;;
10811;SDS011;5458;51.496;7.334;2022-11-13T03:43:57;12.10;;;9.95;;
10811;SDS011;5458;51.496;7.334;2022-11-13T03:46:23;11.75;;;9.07;;
10811;SDS011;5458;51.496;7.334;2022-11-13T03:48:49;11.02;;;9.88;;
10811;SDS011;5458;51.496;7.334;2022-11-13T03:51:14;10.68;;;9.57;;
10811;SDS011;5458;51.496;7.334;2022-11-13T03:53:40;12.07;;;9.57;;
10811;SDS011;5458;51.496;7.334;2022-11-13T03:56:06;11.52;;;8.85;;
10811;SDS011;5458;51.496;7.334;2022-11-13T03:58:31;10.40;;;9.40;;
10811;SDS011;5458;51.496;7.334;2022-11-13T04:00:57;12.82;;;10.25;;
10811;SDS011;5458;51.496;7.334;2022-11-13T04:03:22;9.35;;;8.35;;
10811;SDS011;5458;51.496;7.334;2022-11-13T04:05:48;10.55;;;9.35;;
10811;SDS011;5458;51.496;7.334;2022-11-13T04:08:14;10.75;;;9.65;;
10811;SDS011;5458;51.496;7.334;2022-11-13T04:10:41;9.80;;;8.82;;
10811;SDS011;5458;51.496;7.334;2022-11-13T04:13:06;11.18;;;10.07;;
10811;SDS011;5458;51.496;7.334;2022-11-13T04:15:32;9.95;;;8.98;;
10811;SDS011;5458;51.496;7.334;2022-11-13T04:17:58;11.70;;;10.50;;
10811;SDS011;5458;51.496;7.334;2022-11-13T04:20:24;11.85;;;9.13;;
10811;SDS011;5458;51.496;7.334;2022-11-13T04:22:51;11.48;;;9.52;;
10811;SDS011;5458;51.496;7.334;2022-11-13T04:25:18;10.65;;;9.52;;
10811;SDS011;5458;51.496;7.334;2022-11-13T04:27:43;11.80;;;9.82;;
10811;SDS011;5458;51.496;7.334;2022-11-13T04:30:09;10.40;;;9.20;;
10811;SDS011;5458;51.496;7.334;2022-11-13T04:32:35;9.48;;;8.32;;
10811;SDS011;5458;51.496;7.334;2022-11-13T04:35:00;10.35;;;9.27;;
10811;SDS011;5458;51.496;7.334;2022-11-13T04:37:26;10.35;;;8.95;;
10811;SDS011;5458;51.496;7.334;2022-11-13T04:39:51;16.98;;;10.45;;
10811;SDS011;5458;51.496;7.334;2022-11-13T04:42:17;10.77;;;9.63;;
10811;SDS011;5458;51.496;7.334;2022-11-13T04:45:02;11.77;;;9.77;;
10811;SDS011;5458;51.496;7.334;2022-11-13T04:47:28;10.82;;;9.73;;
10811;SDS011;5458;51.496;7.334;2022-11-13T04:49:53;10.75;;;9.32;;
10811;SDS011;5458;51.496;7.334;2022-11-13T04:52:19;9.98;;;8.98;;
10811;SDS011;5458;51.496;7.334;2022-11-13T04:54:44;10.18;;;9.05;;
10811;SDS011;5458;51.496;7.334;2022-11-13T04:57:10;10.90;;;9.77;;
10811;SDS011;5458;51.496;7.334;2022-11-13T04:59:36;12.57;;;9.80;;
10811;SDS011;5458;51.496;7.334;2022-11-13T05:02:01;9.77;;;8.77;;
10811;SDS011;5458;51.496;7.334;2022-11-13T05:04:27;11.57;;;8.88;;
10811;SDS011;5458;51.496;7.334;2022-11-13T05:06:52;11.23;;;9.85;;
10811;SDS011;5458;51.496;7.334;2022-11-13T05:09:18;11.65;;;9.60;;
10811;SDS011;5458;51.496;7.334;2022-11-13T05:11:44;11.52;;;10.32;;
10811;SDS011;5458;51.496;7.334;2022-11-13T05:14:10;10.40;;;9.35;;
10811;SDS011;5458;51.496;7.334;2022-11-13T05:16:36;10.13;;;9.13;;
10811;SDS011;5458;51.496;7.334;2022-11-13T05:19:02;11.10;;;9.75;;
10811;SDS011;5458;51.496;7.334;2022-11-13T05:21:34;11.48;;;9.38;;
10811;SDS011;5458;51.496;7.334;2022-11-13T05:24:01;11.32;;;9.73;;
10811;SDS011;5458;51.496;7.334;2022-11-13T05:26:27;11.88;;;9.55;;
10811;SDS011;5458;51.496;7.334;2022-11-13T05:28:56;12.30;;;9.57;;
10811;SDS011;5458;51.496;7.334;2022-11-13T05:31:23;11.98;;;10.38;;
10811;SDS011;5458;51.496;7.334;2022-11-13T05:33:48;11.45;;;9.43;;
10811;SDS011;5458;51.496;7.334;2022-11-13T05:36:15;11.70;;;9.65;;
10811;SDS011;5458;51.496;7.334;2022-11-13T05:38:41;10.63;;;8.93;;
10811;SDS011;5458;51.496;7.334;2022-11-13T05:41:09;11.27;;;10.18;;
10811;SDS011;5458;51.496;7.334;2022-11-13T05:43:36;12.48;;;10.48;;
10811;SDS011;5458;51.496;7.334;2022-11-13T05:46:04;10.65;;;9.60;;
10811;SDS011;5458;51.496;7.334;2022-11-13T05:48:32;11.63;;;9.35;;
10811;SDS011;5458;51.496;7.334;2022-11-13T05:51:05;10.25;;;9.25;;
10811;SDS011;5458;51.496;7.334;2022-11-13T05:53:33;11.70;;;9.52;;
10811;SDS011;5458;51.496;7.334;2022-11-13T05:56:04;12.02;;;9.32;;
10811;SDS011;5458;51.496;7.334;2022-11-13T05:58:31;10.38;;;9.27;;
10811;SDS011;5458;51.496;7.334;2022-11-13T06:01:08;10.48;;;9.38;;
10811;SDS011;5458;51.496;7.334;2022-11-13T06:03:36;11.13;;;9.93;;
10811;SDS011;5458;51.496;7.334;2022-11-13T06:06:02;11.43;;;10.07;;
10811;SDS011;5458;51.496;7.334;2022-11-13T06:08:29;12.38;;;9.90;;
10811;SDS011;5458;51.496;7.334;2022-11-13T06:11:03;11.30;;;10.10;;
10811;SDS011;5458;51.496;7.334;2022-11-13T06:13:30;11.32;;;9.15;;
10811;SDS011;5458;51.496;7.334;2022-11-13T06:16:10;12.38;;;10.00;;
10811;SDS011;5458;51.496;7.334;2022-11-13T06:18:38;12.90;;;9.55;;
10811;SDS011;5458;51.496;7.334;2022-11-13T06:21:09;10.63;;;9.63;;
10811;SDS011;5458;51.496;7.334;2022-11-13T06:23:46;11.80;;;9.73;;
10811;SDS011;5458;51.496;7.334;2022-11-13T06:26:13;10.93;;;9.82;;
10811;SDS011;5458;51.496;7.334;2022-11-13T06:28:43;11.65;;;9.32;;
10811;SDS011;5458;51.496;7.334;2022-11-13T06:31:19;12.02;;;10.45;;
10811;SDS011;5458;51.496;7.334;2022-11-13T06:33:47;10.02;;;9.00;;
10811;SDS011;5458;51.496;7.334;2022-11-13T06:36:19;13.30;;;9.80;;
10811;SDS011;5458;51.496;7.334;2022-11-13T06:38:46;10.57;;;9.57;;
10811;SDS011;5458;51.496;7.334;2022-11-13T06:41:13;10.55;;;9.45;;
10811;SDS011;5458;51.496;7.334;2022-11-13T06:43:40;11.65;;;10.30;;
10811;SDS011;5458;51.496;7.334;2022-11-13T06:46:10;11.52;;;9.65;;
10811;SDS011;5458;51.496;7.334;2022-11-13T06:48:48;11.07;;;9.82;;
10811;SDS011;5458;51.496;7.334;2022-11-13T06:51:15;10.60;;;8.98;;
10811;SDS011;5458;51.496;7.334;2022-11-13T06:53:42;11.50;;;9.73;;
10811;SDS011;5458;51.496;7.334;2022-11-13T06:56:09;11.38;;;10.23;;
10811;SDS011;5458;51.496;7.334;2022-11-13T06:58:35;10.77;;;9.32;;
10811;SDS011;5458;51.496;7.334;2022-11-13T07:01:20;10.95;;;9.75;;
10811;SDS011;5458;51.496;7.334;2022-11-13T07:03:47;10.52;;;9.52;;
10811;SDS011;5458;51.496;7.334;2022-11-13T07:06:17;12.15;;;9.93;;
10811;SDS011;5458;51.496;7.334;2022-11-13T07:08:44;12.15;;;9.85;;
10811;SDS011;5458;51.496;7.334;2022-11-13T07:11:13;10.57;;;9.48;;
10811;SDS011;5458;51.496;7.334;2022-11-13T07:13:43;11.23;;;9.70;;
10811;SDS011;5458;51.496;7.334;2022-11-13T07:16:09;10.65;;;9.55;;
10811;SDS011;5458;51.496;7.334;2022-11-13T07:18:35;12.18;;;9.32;;
10811;SDS011;5458;51.496;7.334;2022-11-13T07:21:04;10.80;;;9.70;;
10811;SDS011;5458;51.496;7.334;2022-11-13T07:23:33;10.80;;;9.80;;
10811;SDS011;5458;51.496;7.334;2022-11-13T07:26:01;11.70;;;8.88;;
10811;SDS011;5458;51.496;7.334;2022-11-13T07:28:27;10.52;;;9.52;;
10811;SDS011;5458;51.496;7.334;2022-11-13T07:30:55;10.98;;;9.75;;
10811;SDS011;5458;51.496;7.334;2022-11-13T07:33:24;11.90;;;10.65;;
10811;SDS011;5458;51.496;7.334;2022-11-13T07:35:54;11.15;;;9.85;;
10811;SDS011;5458;51.496;7.334;2022-11-13T07:38:20;11.23;;;10.10;;
10811;SDS011;5458;51.496;7.334;2022-11-13T07:40:46;11.73;;;10.07;;
10811;SDS011;5458;51.496;7.334;2022-11-13T07:43:12;13.77;;;9.93;;
10811;SDS011;5458;51.496;7.334;2022-11-13T07:45:37;13.50;;;9.73;;
10811;SDS011;5458;51.496;7.334;2022-11-13T07:48:03;11.00;;;9.82;;
10811;SDS011;5458;51.496;7.334;2022-11-13T07:50:30;11.52;;;10.48;;
10811;SDS011;5458;51.496;7.334;2022-11-13T07:52:59;11.40;;;10.35;;
10811;SDS011;5458;51.496;7.334;2022-11-13T07:55:26;11.18;;;10.00;;
10811;SDS011;5458;51.496;7.334;2022-11-13T07:57:55;11.20;;;10.10;;
10811;SDS011;5458;51.496;7.334;2022-11-13T08:00:23;11.68;;;10.52;;
10811;SDS011;5458;51.496;7.334;2022-11-13T08:02:49;11.77;;;10.57;;
10811;SDS011;5458;51.496;7.334;2022-11-13T08:05:14;10.77;;;9.80;;
10811;SDS011;5458;51.496;7.334;2022-11-13T08:07:40;10.88;;;9.77;;
10811;SDS011;5458;51.496;7.334;2022-11-13T08:10:06;11.52;;;10.30;;
10811;SDS011;5458;51.496;7.334;2022-11-13T08:12:32;11.55;;;10.20;;
10811;SDS011;5458;51.496;7.334;2022-11-13T08:14:57;11.70;;;10.55;;
10811;SDS011;5458;51.496;7.334;2022-11-13T08:17:23;11.63;;;10.43;;
10811;SDS011;5458;51.496;7.334;2022-11-13T08:19:48;11.43;;;10.27;;
10811;SDS011;5458;51.496;7.334;2022-11-13T08:22:14;11.27;;;10.15;;
10811;SDS011;5458;51.496;7.334;2022-11-13T08:24:39;11.60;;;10.40;;
10811;SDS011;5458;51.496;7.334;2022-11-13T08:27:05;10.90;;;9.88;;
10811;SDS011;5458;51.496;7.334;2022-11-13T08:29:31;10.55;;;9.45;;
10811;SDS011;5458;51.496;7.334;2022-11-13T08:31:57;11.65;;;10.45;;
10811;SDS011;5458;51.496;7.334;2022-11-13T08:34:23;10.38;;;9.48;;
10811;SDS011;5458;51.496;7.334;2022-11-13T08:36:48;10.63;;;9.05;;
10811;SDS011;5458;51.496;7.334;2022-11-13T08:39:14;8.88;;;8.00;;
10811;SDS011;5458;51.496;7.334;2022-11-13T08:41:40;11.80;;;8.98;;
10811;SDS011;5458;51.496;7.334;2022-11-13T08:44:05;8.98;;;8.18;;
10811;SDS011;5458;51.496;7.334;2022-11-13T08:46:31;9.63;;;8.55;;
10811;SDS011;5458;51.496;7.334;2022-11-13T08:48:56;9.15;;;8.25;;
10811;SDS011;5458;51.496;7.334;2022-11-13T08:51:22;9.02;;;8.23;;
10811;SDS011;5458;51.496;7.334;2022-11-13T08:53:47;9.45;;;8.23;;
10811;SDS011;5458;51.496;7.334;2022-11-13T08:56:13;8.95;;;8.15;;
10811;SDS011;5458;51.496;7.334;2022-11-13T08:58:38;8.93;;;8.13;;
10811;SDS011;5458;51.496;7.334;2022-11-13T09:01:04;9.70;;;8.70;;
10811;SDS011;5458;51.496;7.334;2022-11-13T09:03:30;9.77;;;8.77;;
10811;SDS011;5458;51.496;7.334;2022-11-13T09:05:55;9.85;;;8.95;;
10811;SDS011;5458;51.496;7.334;2022-11-13T09:08:21;10.20;;;9.30;;
10811;SDS011;5458;51.496;7.334;2022-11-13T09:10:46;9.90;;;8.88;;
10811;SDS011;5458;51.496;7.334;2022-11-13T09:13:12;8.55;;;7.65;;
10811;SDS011;5458;51.496;7.334;2022-11-13T09:15:37;8.60;;;7.70;;
10811;SDS011;5458;51.496;7.334;2022-11-13T09:18:04;10.27;;;8.38;;
10811;SDS011;5458;51.496;7.334;2022-11-13T09:20:30;8.63;;;7.82;;
10811;SDS011;5458;51.496;7.334;2022-11-13T09:22:57;8.65;;;7.85;;
10811;SDS011;5458;51.496;7.334;2022-11-13T09:25:25;9.13;;;8.27;;
10811;SDS011;5458;51.496;7.334;2022-11-13T09:27:52;8.70;;;7.88;;
10811;SDS011;5458;51.496;7.334;2022-11-13T09:30:19;7.82;;;7.03;;
10811;SDS011;5458;51.496;7.334;2022-11-13T09:32:45;7.90;;;7.10;;
10811;SDS011;5458;51.496;7.334;2022-11-13T09:35:10;8.35;;;7.40;;
10811;SDS011;5458;51.496;7.334;2022-11-13T09:37:36;7.55;;;6.28;;
10811;SDS011;5458;51.496;7.334;2022-11-13T09:40:02;6.43;;;5.82;;
10811;SDS011;5458;51.496;7.334;2022-11-13T09:42:28;6.57;;;5.90;;
10811;SDS011;5458;51.496;7.334;2022-11-13T09:45:00;6.95;;;6.22;;
10811;SDS011;5458;51.496;7.334;2022-11-13T09:47:35;6.95;;;6.25;;
10811;SDS011;5458;51.496;7.334;2022-11-13T09:52:53;7.28;;;6.63;;
10811;SDS011;5458;51.496;7.334;2022-11-13T09:55:21;7.38;;;6.60;;
10811;SDS011;5458;51.496;7.334;2022-11-13T10:00:24;6.88;;;6.28;;
10811;SDS011;5458;51.496;7.334;2022-11-13T10:02:57;7.18;;;6.47;;
10811;SDS011;5458;51.496;7.334;2022-11-13T10:05:56;6.70;;;6.05;;
10811;SDS011;5458;51.496;7.334;2022-11-13T10:11:10;7.90;;;7.00;;
10811;SDS011;5458;51.496;7.334;2022-11-13T10:13:44;7.32;;;6.63;;
10811;SDS011;5458;51.496;7.334;2022-11-13T10:21:57;6.30;;;5.70;;
10811;SDS011;5458;51.496;7.334;2022-11-13T10:24:34;7.80;;;6.15;;
10811;SDS011;5458;51.496;7.334;2022-11-13T10:27:09;7.15;;;6.10;;
10811;SDS011;5458;51.496;7.334;2022-11-13T10:29:36;8.95;;;5.90;;
10811;SDS011;5458;51.496;7.334;2022-11-13T10:32:21;6.05;;;5.50;;
10811;SDS011;5458;51.496;7.334;2022-11-13T10:35:31;6.88;;;5.88;;
10811;SDS011;5458;51.496;7.334;2022-11-13T10:38:15;8.93;;;6.30;;
10811;SDS011;5458;51.496;7.334;2022-11-13T10:40:47;7.72;;;6.28;;
10811;SDS011;5458;51.496;7.334;2022-11-13T10:43:15;6.97;;;5.43;;
10811;SDS011;5458;51.496;7.334;2022-11-13T10:45:52;5.47;;;5.05;;
10811;SDS011;5458;51.496;7.334;2022-11-13T10:48:27;6.18;;;5.57;;
10811;SDS011;5458;51.496;7.334;2022-11-13T10:51:03;6.20;;;5.60;;
10811;SDS011;5458;51.496;7.334;2022-11-13T10:53:49;7.22;;;5.68;;
10811;SDS011;5458;51.496;7.334;2022-11-13T11:01:36;5.55;;;4.90;;
10811;SDS011;5458;51.496;7.334;2022-11-13T11:04:03;4.80;;;4.30;;
10811;SDS011;5458;51.496;7.334;2022-11-13T11:06:30;5.65;;;5.10;;
10811;SDS011;5458;51.496;7.334;2022-11-13T11:09:04;5.95;;;4.47;;
10811;SDS011;5458;51.496;7.334;2022-11-13T11:14:53;6.63;;;5.05;;
10811;SDS011;5458;51.496;7.334;2022-11-13T11:22:52;4.90;;;4.43;;
10811;SDS011;5458;51.496;7.334;2022-11-13T11:25:35;5.22;;;4.00;;
10811;SDS011;5458;51.496;7.334;2022-11-13T11:28:12;4.13;;;3.70;;
10811;SDS011;5458;51.496;7.334;2022-11-13T11:30:49;5.10;;;4.60;;
10811;SDS011;5458;51.496;7.334;2022-11-13T11:33:51;5.80;;;4.45;;
10811;SDS011;5458;51.496;7.334;2022-11-13T11:41:31;5.30;;;4.65;;
10811;SDS011;5458;51.496;7.334;2022-11-13T11:44:04;5.47;;;4.43;;
10811;SDS011;5458;51.496;7.334;2022-11-13T11:46:53;6.38;;;4.75;;
10811;SDS011;5458;51.496;7.334;2022-11-13T11:49:19;4.65;;;3.83;;
10811;SDS011;5458;51.496;7.334;2022-11-13T11:51:56;4.60;;;4.10;;
10811;SDS011;5458;51.496;7.334;2022-11-13T11:54:42;6.25;;;3.85;;
10811;SDS011;5458;51.496;7.334;2022-11-13T12:00:15;4.32;;;4.00;;
10811;SDS011;5458;51.496;7.334;2022-11-13T12:02:47;4.50;;;4.05;;
10811;SDS011;5458;51.496;7.334;2022-11-13T12:08:31;6.15;;;3.95;;
10811;SDS011;5458;51.496;7.334;2022-11-13T12:13:47;4.55;;;3.60;;
10811;SDS011;5458;51.496;7.334;2022-11-13T12:19:18;4.03;;;3.40;;
10811;SDS011;5458;51.496;7.334;2022-11-13T12:22:02;6.13;;;3.47;;
10811;SDS011;5458;51.496;7.334;2022-11-13T12:24:52;2.85;;;2.65;;
10811;SDS011;5458;51.496;7.334;2022-11-13T12:27:47;3.55;;;3.25;;
10811;SDS011;5458;51.496;7.334;2022-11-13T12:30:20;3.85;;;2.50;;
10811;SDS011;5458;51.496;7.334;2022-11-13T12:35:26;3.42;;;3.03;;
10811;SDS011;5458;51.496;7.334;2022-11-13T12:40:41;3.83;;;3.00;;
10811;SDS011;5458;51.496;7.334;2022-11-13T12:43:33;3.53;;;2.55;;
10811;SDS011;5458;51.496;7.334;2022-11-13T12:46:08;4.13;;;3.20;;
10811;SDS011;5458;51.496;7.334;2022-11-13T12:48:42;2.90;;;2.60;;
10811;SDS011;5458;51.496;7.334;2022-11-13T12:51:13;3.20;;;2.60;;
10811;SDS011;5458;51.496;7.334;2022-11-13T12:53:47;3.17;;;2.85;;
10811;SDS011;5458;51.496;7.334;2022-11-13T13:01:33;4.22;;;3.10;;
10811;SDS011;5458;51.496;7.334;2022-11-13T13:10:06;3.67;;;3.38;;
10811;SDS011;5458;51.496;7.334;2022-11-13T13:15:56;3.75;;;3.40;;
10811;SDS011;5458;51.496;7.334;2022-11-13T13:23:33;4.18;;;3.40;;
10811;SDS011;5458;51.496;7.334;2022-11-13T13:26:27;3.80;;;3.33;;
10811;SDS011;5458;51.496;7.334;2022-11-13T13:31:49;3.97;;;3.30;;
10811;SDS011;5458;51.496;7.334;2022-11-13T13:37:13;3.88;;;3.20;;
10811;SDS011;5458;51.496;7.334;2022-11-13T13:40:02;4.05;;;3.47;;
10811;SDS011;5458;51.496;7.334;2022-11-13T13:42:45;3.90;;;3.30;;
10811;SDS011;5458;51.496;7.334;2022-11-13T13:48:08;4.78;;;3.10;;
10811;SDS011;5458;51.496;7.334;2022-11-13T13:50:39;4.00;;;3.17;;
10811;SDS011;5458;51.496;7.334;2022-11-13T13:53:10;4.38;;;3.60;;
10811;SDS011;5458;51.496;7.334;2022-11-13T13:55:42;3.95;;;3.25;;
10811;SDS011;5458;51.496;7.334;2022-11-13T13:58:23;3.78;;;3.38;;
10811;SDS011;5458;51.496;7.334;2022-11-13T14:00:59;4.10;;;3.60;;
10811;SDS011;5458;51.496;7.334;2022-11-13T14:03:27;11.45;;;3.40;;
10811;SDS011;5458;51.496;7.334;2022-11-13T14:08:48;3.58;;;3.03;;
10811;SDS011;5458;51.496;7.334;2022-11-13T14:11:20;4.07;;;3.30;;
10811;SDS011;5458;51.496;7.334;2022-11-13T14:13:53;4.07;;;3.08;;
10811;SDS011;5458;51.496;7.334;2022-11-13T14:16:30;3.80;;;3.50;;
10811;SDS011;5458;51.496;7.334;2022-11-13T14:19:04;3.40;;;3.10;;
10811;SDS011;5458;51.496;7.334;2022-11-13T14:21:30;3.38;;;2.90;;
10811;SDS011;5458;51.496;7.334;2022-11-13T14:23:56;3.13;;;2.90;;
10811;SDS011;5458;51.496;7.334;2022-11-13T14:26:25;3.05;;;2.70;;
10811;SDS011;5458;51.496;7.334;2022-11-13T14:28:54;3.38;;;2.75;;
10811;SDS011;5458;51.496;7.334;2022-11-13T14:31:28;2.70;;;2.42;;
10811;SDS011;5458;51.496;7.334;2022-11-13T14:34:00;2.28;;;2.08;;
10811;SDS011;5458;51.496;7.334;2022-11-13T14:36:32;2.72;;;2.38;;
10811;SDS011;5458;51.496;7.334;2022-11-13T14:38:58;2.50;;;1.70;;
10811;SDS011;5458;51.496;7.334;2022-11-13T14:41:40;4.78;;;2.30;;
10811;SDS011;5458;51.496;7.334;2022-11-13T14:44:28;3.33;;;1.90;;
10811;SDS011;5458;51.496;7.334;2022-11-13T14:47:00;3.80;;;2.25;;
10811;SDS011;5458;51.496;7.334;2022-11-13T14:49:29;3.45;;;2.00;;
10811;SDS011;5458;51.496;7.334;2022-11-13T14:51:56;4.75;;;2.35;;
10811;SDS011;5458;51.496;7.334;2022-11-13T14:54:26;2.55;;;2.20;;
10811;SDS011;5458;51.496;7.334;2022-11-13T14:56:53;3.13;;;2.70;;
10811;SDS011;5458;51.496;7.334;2022-11-13T14:59:25;3.00;;;2.70;;
10811;SDS011;5458;51.496;7.334;2022-11-13T15:01:55;2.83;;;2.55;;
10811;SDS011;5458;51.496;7.334;2022-11-13T15:04:22;5.10;;;2.78;;
10811;SDS011;5458;51.496;7.334;2022-11-13T15:06:48;3.28;;;2.97;;
10811;SDS011;5458;51.496;7.334;2022-11-13T15:09:20;4.18;;;2.95;;
10811;SDS011;5458;51.496;7.334;2022-11-13T15:11:47;3.22;;;2.92;;
10811;SDS011;5458;51.496;7.334;2022-11-13T15:14:13;4.97;;;2.78;;
10811;SDS011;5458;51.496;7.334;2022-11-13T15:16:42;2.92;;;2.58;;
10811;SDS011;5458;51.496;7.334;2022-11-13T15:21:48;3.65;;;2.70;;
10811;SDS011;5458;51.496;7.334;2022-11-13T15:24:13;3.60;;;2.92;;
10811;SDS011;5458;51.496;7.334;2022-11-13T15:26:39;4.43;;;3.65;;
10811;SDS011;5458;51.496;7.334;2022-11-13T15:29:05;6.00;;;3.45;;
10811;SDS011;5458;51.496;7.334;2022-11-13T15:31:32;3.65;;;3.13;;
10811;SDS011;5458;51.496;7.334;2022-11-13T15:34:00;4.43;;;3.00;;
10811;SDS011;5458;51.496;7.334;2022-11-13T15:36:25;7.32;;;4.20;;
10811;SDS011;5458;51.496;7.334;2022-11-13T15:38:51;5.18;;;3.78;;
10811;SDS011;5458;51.496;7.334;2022-11-13T15:41:18;4.55;;;3.30;;
10811;SDS011;5458;51.496;7.334;2022-11-13T15:43:47;4.13;;;3.45;;
10811;SDS011;5458;51.496;7.334;2022-11-13T15:46:15;4.57;;;3.70;;
10811;SDS011;5458;51.496;7.334;2022-11-13T15:48:43;4.07;;;3.67;;
10811;SDS011;5458;51.496;7.334;2022-11-13T15:51:14;6.50;;;4.00;;
10811;SDS011;5458;51.496;7.334;2022-11-13T15:53:55;4.40;;;4.00;;
10811;SDS011;5458;51.496;7.334;2022-11-13T15:56:29;5.97;;;3.35;;
10811;SDS011;5458;51.496;7.334;2022-11-13T15:58:55;7.18;;;4.38;;
10811;SDS011;5458;51.496;7.334;2022-11-13T16:01:21;5.63;;;4.35;;
10811;SDS011;5458;51.496;7.334;2022-11-13T16:03:47;6.47;;;4.03;;
10811;SDS011;5458;51.496;7.334;2022-11-13T16:06:16;4.63;;;4.18;;
10811;SDS011;5458;51.496;7.334;2022-11-13T16:08:43;6.13;;;4.60;;
10811;SDS011;5458;51.496;7.334;2022-11-13T16:11:16;7.85;;;4.55;;
10811;SDS011;5458;51.496;7.334;2022-11-13T16:13:43;6.40;;;4.63;;
10811;SDS011;5458;51.496;7.334;2022-11-13T16:16:12;4.75;;;4.00;;
10811;SDS011;5458;51.496;7.334;2022-11-13T16:18:42;9.07;;;5.68;;
10811;SDS011;5458;51.496;7.334;2022-11-13T16:21:10;6.70;;;5.30;;
10811;SDS011;5458;51.496;7.334;2022-11-13T16:23:37;6.43;;;5.25;;
10811;SDS011;5458;51.496;7.334;2022-11-13T16:26:03;6.07;;;5.03;;
10811;SDS011;5458;51.496;7.334;2022-11-13T16:28:29;9.25;;;6.78;;
10811;SDS011;5458;51.496;7.334;2022-11-13T16:30:55;6.88;;;5.70;;